createdAt,value
2018-07-16T00:02:03.063Z,3.77
2018-07-16T00:04:35.434Z,3.23
2018-07-16T00:07:08.139Z,3.37
2018-07-16T00:09:40.602Z,3.47
2018-07-16T00:12:13.139Z,3.63
2018-07-16T00:14:44.705Z,3.60
2018-07-16T00:17:17.282Z,3.37
2018-07-16T00:19:49.639Z,3.93
2018-07-16T00:22:21.329Z,3.80
2018-07-16T00:24:53.799Z,4.03
2018-07-16T00:27:26.102Z,4.10
2018-07-16T00:29:58.497Z,3.73
2018-07-16T00:32:31.263Z,3.80
2018-07-16T00:35:04.077Z,3.80
2018-07-16T00:37:36.402Z,3.80
2018-07-16T00:40:08.928Z,3.30
2018-07-16T00:42:41.199Z,3.43
2018-07-16T00:45:13.768Z,3.83
2018-07-16T00:47:45.274Z,3.47
2018-07-16T00:50:17.673Z,3.90
2018-07-16T00:52:50.082Z,3.47
2018-07-16T00:55:23.052Z,3.97
2018-07-16T00:57:55.171Z,3.43
2018-07-16T01:00:27.774Z,3.43
2018-07-16T01:03:00.251Z,3.47
2018-07-16T01:05:32.680Z,3.10
2018-07-16T01:08:05.029Z,4.00
2018-07-16T01:10:37.225Z,3.63
2018-07-16T01:13:09.623Z,4.00
2018-07-16T01:15:42.063Z,3.93
2018-07-16T01:18:14.340Z,3.63
2018-07-16T01:20:47.006Z,3.90
2018-07-16T01:23:19.495Z,3.67
2018-07-16T01:25:51.891Z,3.50
2018-07-16T01:28:24.841Z,3.33
2018-07-16T01:30:57.261Z,3.60
2018-07-16T01:33:29.979Z,3.80
2018-07-16T01:36:02.567Z,3.53
2018-07-16T01:38:35.007Z,3.30
2018-07-16T01:41:07.509Z,3.23
2018-07-16T01:43:39.981Z,3.37
2018-07-16T01:46:12.369Z,3.93
2018-07-16T01:48:44.773Z,3.27
2018-07-16T01:51:17.064Z,4.07
2018-07-16T01:53:48.142Z,3.30
2018-07-16T01:56:20.604Z,3.53
2018-07-16T01:58:53.170Z,3.60
2018-07-16T02:01:25.532Z,3.40
2018-07-16T02:03:58.887Z,4.17
2018-07-16T02:06:31.311Z,3.57
2018-07-16T02:09:04.250Z,3.77
2018-07-16T02:11:36.674Z,2.93
2018-07-16T02:14:08.868Z,3.20
2018-07-16T02:16:41.176Z,3.60
2018-07-16T02:19:13.930Z,3.50
2018-07-16T02:21:46.428Z,3.50
2018-07-16T02:24:18.870Z,3.80
2018-07-16T02:26:51.221Z,3.13
2018-07-16T02:29:23.899Z,3.63
2018-07-16T02:31:56.196Z,3.43
2018-07-16T02:34:28.430Z,3.73
2018-07-16T02:37:00.618Z,3.50
2018-07-16T02:39:33.152Z,3.70
2018-07-16T02:42:05.534Z,3.20
2018-07-16T02:44:37.733Z,3.13
2018-07-16T02:47:10.359Z,3.70
2018-07-16T02:49:42.911Z,3.40
2018-07-16T02:52:14.860Z,3.93
2018-07-16T02:54:46.820Z,3.43
2018-07-16T02:57:19.495Z,3.37
2018-07-16T02:59:52.047Z,3.60
2018-07-16T03:02:24.433Z,3.50
2018-07-16T03:04:56.577Z,3.63
2018-07-16T03:07:28.843Z,3.77
2018-07-16T03:10:01.576Z,3.60
2018-07-16T03:12:34.107Z,3.50
2018-07-16T03:15:07.152Z,3.70
2018-07-16T03:17:39.451Z,4.47
2018-07-16T03:20:12.085Z,3.57
2018-07-16T03:22:44.914Z,3.80
2018-07-16T03:25:17.605Z,3.20
2018-07-16T03:27:49.751Z,3.20
2018-07-16T03:30:22.473Z,3.97
2018-07-16T03:32:55.023Z,3.20
2018-07-16T03:35:27.436Z,3.17
2018-07-16T03:37:59.826Z,3.27
2018-07-16T03:40:32.180Z,3.50
2018-07-16T03:43:04.366Z,3.27
2018-07-16T03:45:36.855Z,3.63
2018-07-16T03:48:09.173Z,3.73
2018-07-16T03:50:41.608Z,3.97
2018-07-16T03:53:13.824Z,6.60
2018-07-16T03:55:46.021Z,3.67
2018-07-16T03:58:17.270Z,3.80
2018-07-16T04:00:49.542Z,5.40
2018-07-16T04:03:20.638Z,5.47
2018-07-16T04:05:52.991Z,3.73
2018-07-16T04:08:25.472Z,3.40
2018-07-16T04:10:57.744Z,3.90
2018-07-16T04:13:30.467Z,3.70
2018-07-16T04:16:01.916Z,4.47
2018-07-16T04:18:34.138Z,3.77
2018-07-16T04:21:06.505Z,3.73
2018-07-16T04:23:38.842Z,3.47
2018-07-16T04:26:11.263Z,3.67
2018-07-16T04:28:44.022Z,3.60
2018-07-16T04:31:16.413Z,3.20
2018-07-16T04:33:48.941Z,3.70
2018-07-16T04:36:21.346Z,3.53
2018-07-16T04:38:53.654Z,3.60
2018-07-16T04:41:26.093Z,3.90
2018-07-16T04:43:58.407Z,3.90
2018-07-16T04:46:31.603Z,3.40
2018-07-16T04:49:04.218Z,3.50
2018-07-16T04:51:36.765Z,3.67
2018-07-16T04:54:09.394Z,4.07
2018-07-16T04:56:41.803Z,3.60
2018-07-16T04:59:14.372Z,4.07
2018-07-16T05:01:46.764Z,3.90
2018-07-16T05:04:19.010Z,3.80
2018-07-16T05:06:51.514Z,4.50
2018-07-16T05:09:23.887Z,4.20
2018-07-16T05:11:56.455Z,3.87
2018-07-16T05:14:29.263Z,4.10
2018-07-16T05:17:01.633Z,4.40
2018-07-16T05:19:34.250Z,4.23
2018-07-16T05:22:06.760Z,3.50
2018-07-16T05:24:39.402Z,3.70
2018-07-16T05:27:12.690Z,3.90
2018-07-16T05:29:45.103Z,3.20
2018-07-16T05:32:17.601Z,3.70
2018-07-16T05:34:50.039Z,3.30
2018-07-16T05:37:22.414Z,3.40
2018-07-16T05:39:54.649Z,3.80
2018-07-16T05:42:26.933Z,3.70
2018-07-16T05:44:59.371Z,3.47
2018-07-16T05:47:32.109Z,3.87
2018-07-16T05:50:04.584Z,3.37
2018-07-16T05:52:37.060Z,3.50
2018-07-16T05:55:09.375Z,4.17
2018-07-16T05:57:42.140Z,3.80
2018-07-16T06:00:14.947Z,3.57
2018-07-16T06:02:47.480Z,3.97
2018-07-16T06:05:20.007Z,3.60
2018-07-16T06:07:53.535Z,3.57
2018-07-16T06:10:25.931Z,3.70
2018-07-16T06:12:58.529Z,3.40
2018-07-16T06:15:30.869Z,4.07
2018-07-16T06:18:03.447Z,3.30
2018-07-16T06:20:35.998Z,3.57
2018-07-16T06:23:08.670Z,3.47
2018-07-16T06:25:41.397Z,3.33
2018-07-16T06:28:13.714Z,3.10
2018-07-16T06:30:46.278Z,4.07
2018-07-16T06:33:18.926Z,3.70
2018-07-16T06:35:51.242Z,3.30
2018-07-16T06:38:23.748Z,3.73
2018-07-16T06:40:56.283Z,3.67
2018-07-16T06:43:28.865Z,3.73
2018-07-16T06:46:01.455Z,3.60
2018-07-16T06:48:33.661Z,3.90
2018-07-16T06:51:06.013Z,3.93
2018-07-16T06:53:38.557Z,3.80
2018-07-16T06:56:11.180Z,3.70
2018-07-16T06:58:43.915Z,3.30
2018-07-16T07:01:16.294Z,3.60
2018-07-16T07:03:48.690Z,3.13
2018-07-16T07:06:21.058Z,3.80
2018-07-16T07:08:53.349Z,3.70
2018-07-16T07:11:25.762Z,3.93
2018-07-16T07:13:59.586Z,3.97
2018-07-16T07:16:32.254Z,3.50
2018-07-16T07:19:04.634Z,3.53
2018-07-16T07:21:37.186Z,4.20
2018-07-16T07:24:09.349Z,3.83
2018-07-16T07:26:41.892Z,3.60
2018-07-16T07:29:14.998Z,3.87
2018-07-16T07:31:47.407Z,3.70
2018-07-16T07:34:20.007Z,5.47
2018-07-16T07:36:52.544Z,3.70
2018-07-16T07:39:24.963Z,4.80
2018-07-16T07:41:57.345Z,3.90
2018-07-16T07:44:29.907Z,4.07
2018-07-16T07:47:02.256Z,4.33
2018-07-16T07:49:34.506Z,4.40
2018-07-16T07:52:07.000Z,3.80
2018-07-16T07:54:39.572Z,3.93
2018-07-16T07:57:12.218Z,4.70
2018-07-16T07:59:44.415Z,4.20
2018-07-16T08:02:16.916Z,4.10
2018-07-16T08:04:49.439Z,4.40
2018-07-16T08:07:21.724Z,4.30
2018-07-16T08:09:54.331Z,4.90
2018-07-16T08:12:26.702Z,4.50
2018-07-16T08:14:59.451Z,5.00
2018-07-16T08:17:31.727Z,4.90
2018-07-16T08:20:04.820Z,4.43
2018-07-16T08:22:37.416Z,4.20
2018-07-16T08:25:10.056Z,4.67
2018-07-16T08:27:41.266Z,4.13
2018-07-16T08:30:14.109Z,3.80
2018-07-16T08:32:46.881Z,4.37
2018-07-16T08:35:19.331Z,4.10
2018-07-16T08:37:51.775Z,4.07
2018-07-16T08:40:24.399Z,4.00
2018-07-16T08:42:56.923Z,4.00
2018-07-16T08:45:29.112Z,4.27
2018-07-16T08:48:01.634Z,4.57
2018-07-16T08:50:33.982Z,3.80
2018-07-16T08:53:06.464Z,4.27
2018-07-16T08:55:39.013Z,4.40
2018-07-16T08:58:11.422Z,4.30
2018-07-16T09:00:43.831Z,4.30
2018-07-16T09:03:15.997Z,4.50
2018-07-16T09:05:53.251Z,4.70
2018-07-16T09:08:25.883Z,4.53
2018-07-16T09:10:58.600Z,4.57
2018-07-16T09:13:31.147Z,4.60
2018-07-16T09:16:03.906Z,5.03
2018-07-16T09:18:36.412Z,4.70
2018-07-16T09:21:08.854Z,4.63
2018-07-16T09:23:41.399Z,4.50
2018-07-16T09:26:13.745Z,4.60
2018-07-16T09:28:46.911Z,4.50
2018-07-16T09:31:19.517Z,4.63
2018-07-16T09:33:51.658Z,4.47
2018-07-16T09:36:24.242Z,4.90
2018-07-16T09:38:56.631Z,4.47
2018-07-16T09:41:29.004Z,4.80
2018-07-16T09:44:01.160Z,5.07
2018-07-16T09:46:33.515Z,4.50
2018-07-16T09:49:05.883Z,4.00
2018-07-16T09:51:38.483Z,4.37
2018-07-16T09:54:10.843Z,5.30
2018-07-16T09:56:43.337Z,4.87
2018-07-16T09:59:15.471Z,4.07
2018-07-16T10:01:52.274Z,4.20
2018-07-16T10:04:24.460Z,4.20
2018-07-16T10:06:57.042Z,4.37
2018-07-16T10:09:29.378Z,3.93
2018-07-16T10:12:01.961Z,4.80
2018-07-16T10:14:34.508Z,4.30
2018-07-16T10:17:08.265Z,4.53
2018-07-16T10:19:40.725Z,5.13
2018-07-16T10:22:13.097Z,4.13
2018-07-16T10:24:45.981Z,3.87
2018-07-16T10:27:18.374Z,4.80
2018-07-16T10:29:51.470Z,4.80
2018-07-16T10:32:23.912Z,4.93
2018-07-16T10:34:56.402Z,6.00
2018-07-16T10:37:28.756Z,5.30
2018-07-16T10:40:01.424Z,4.50
2018-07-16T10:42:33.638Z,4.80
2018-07-16T10:45:05.787Z,5.90
2018-07-16T10:47:38.520Z,5.07
2018-07-16T10:50:10.966Z,5.77
2018-07-16T10:52:43.481Z,4.67
2018-07-16T10:55:15.956Z,6.07
2018-07-16T10:57:48.321Z,5.57
2018-07-16T11:00:20.764Z,4.60
2018-07-16T11:02:53.231Z,5.37
2018-07-16T11:05:25.885Z,5.90
2018-07-16T11:07:57.386Z,5.40
2018-07-16T11:10:29.962Z,5.30
2018-07-16T11:13:02.532Z,5.20
2018-07-16T11:15:35.002Z,5.57
2018-07-16T11:18:07.385Z,5.10
2018-07-16T11:20:39.690Z,6.40
2018-07-16T11:23:12.267Z,5.33
2018-07-16T11:25:48.374Z,5.33
2018-07-16T11:28:20.874Z,5.17
2018-07-16T11:30:53.725Z,6.17
2018-07-16T11:33:25.868Z,5.50
2018-07-16T11:35:58.264Z,4.40
2018-07-16T11:38:30.391Z,5.20
2018-07-16T11:41:02.727Z,5.40
2018-07-16T11:43:34.919Z,4.50
2018-07-16T11:46:08.151Z,5.43
2018-07-16T11:48:41.205Z,5.20
2018-07-16T11:51:13.767Z,4.73
2018-07-16T11:53:46.528Z,5.97
2018-07-16T11:56:18.916Z,5.50
2018-07-16T11:58:51.235Z,5.73
2018-07-16T12:01:23.754Z,4.80
2018-07-16T12:03:56.129Z,4.87
2018-07-16T12:06:28.690Z,6.53
2018-07-16T12:09:01.011Z,4.63
2018-07-16T12:11:33.585Z,4.90
2018-07-16T12:14:06.027Z,5.00
2018-07-16T12:16:38.305Z,5.00
2018-07-16T12:19:10.875Z,5.53
2018-07-16T12:21:43.498Z,5.30
2018-07-16T12:24:15.879Z,6.47
2018-07-16T12:26:48.226Z,5.40
2018-07-16T12:29:20.628Z,7.00
2018-07-16T12:31:53.167Z,5.80
2018-07-16T12:34:25.588Z,5.30
2018-07-16T12:36:58.087Z,5.10
2018-07-16T12:39:30.356Z,5.03
2018-07-16T12:42:02.552Z,5.40
2018-07-16T12:44:34.700Z,5.37
2018-07-16T12:47:06.989Z,5.50
2018-07-16T12:49:39.458Z,5.83
2018-07-16T12:52:12.015Z,5.57
2018-07-16T12:54:44.702Z,5.63
2018-07-16T12:57:17.175Z,5.67
2018-07-16T12:59:50.320Z,6.03
2018-07-16T13:02:22.801Z,5.70
2018-07-16T13:04:55.501Z,5.77
2018-07-16T13:07:28.563Z,6.10
2018-07-16T13:10:01.483Z,5.87
2018-07-16T13:12:34.575Z,5.57
2018-07-16T13:15:07.455Z,5.03
2018-07-16T13:17:40.174Z,6.17
2018-07-16T13:20:13.021Z,6.43
2018-07-16T13:22:45.580Z,5.00
2018-07-16T13:25:18.219Z,6.10
2018-07-16T13:27:51.399Z,6.10
2018-07-16T13:30:25.735Z,5.50
2018-07-16T13:32:58.142Z,6.10
2018-07-16T13:35:30.581Z,5.80
2018-07-16T13:38:03.559Z,5.87
2018-07-16T13:40:36.033Z,5.93
2018-07-16T13:43:08.519Z,5.93
2018-07-16T13:45:44.886Z,5.83
2018-07-16T13:48:17.360Z,5.10
2018-07-16T13:50:49.772Z,5.87
2018-07-16T13:53:22.297Z,5.57
2018-07-16T13:55:55.105Z,5.27
2018-07-16T13:58:28.171Z,5.33
2018-07-16T14:01:01.135Z,4.73
2018-07-16T14:03:33.559Z,5.10
2018-07-16T14:06:06.053Z,5.17
2018-07-16T14:08:38.469Z,6.37
2018-07-16T14:11:11.327Z,6.33
2018-07-16T14:13:44.000Z,5.67
2018-07-16T14:16:16.411Z,6.17
2018-07-16T14:18:49.247Z,6.17
2018-07-16T14:21:22.458Z,5.50
2018-07-16T14:23:55.348Z,5.83
2018-07-16T14:26:27.799Z,5.73
2018-07-16T14:29:02.169Z,4.83
2018-07-16T14:31:35.055Z,5.53
2018-07-16T14:34:08.340Z,4.27
2018-07-16T14:36:42.099Z,4.97
2018-07-16T14:39:15.813Z,4.90
2018-07-16T14:41:48.635Z,4.93
2018-07-16T14:44:21.490Z,4.60
2018-07-16T14:46:54.615Z,5.07
2018-07-16T14:49:27.448Z,4.60
2018-07-16T14:52:00.592Z,5.63
2018-07-16T14:54:33.531Z,4.37
2018-07-16T14:57:07.061Z,4.93
2018-07-16T14:59:40.115Z,4.83
2018-07-16T15:02:11.800Z,4.50
2018-07-16T15:04:44.718Z,5.37
2018-07-16T15:07:17.876Z,5.27
2018-07-16T15:09:51.710Z,4.23
2018-07-16T15:12:24.551Z,4.60
2018-07-16T15:14:57.276Z,5.40
2018-07-16T15:17:29.952Z,4.93
2018-07-16T15:20:03.563Z,4.67
2018-07-16T15:22:36.769Z,4.30
2018-07-16T15:25:09.299Z,4.87
2018-07-16T15:27:42.331Z,4.90
2018-07-16T15:30:15.241Z,4.40
2018-07-16T15:32:47.968Z,4.53
2018-07-16T15:35:20.842Z,4.33
2018-07-16T15:37:53.724Z,3.97
2018-07-16T15:40:27.750Z,3.73
2018-07-16T15:43:01.304Z,4.07
2018-07-16T15:45:34.027Z,4.03
2018-07-16T15:48:07.168Z,3.83
2018-07-16T15:50:40.033Z,4.27
2018-07-16T15:53:12.838Z,4.10
2018-07-16T15:55:47.534Z,4.60
2018-07-16T15:58:21.727Z,4.37
2018-07-16T16:00:54.835Z,3.90
2018-07-16T16:03:27.802Z,4.00
2018-07-16T16:06:01.035Z,3.90
2018-07-16T16:08:34.138Z,3.73
2018-07-16T16:11:07.294Z,3.93
2018-07-16T16:13:40.504Z,3.80
2018-07-16T16:16:13.575Z,4.13
2018-07-16T16:18:46.159Z,4.80
2018-07-16T16:21:19.206Z,3.47
2018-07-16T16:23:52.414Z,4.17
2018-07-16T16:26:25.208Z,4.50
2018-07-16T16:28:58.207Z,4.87
2018-07-16T16:31:31.761Z,3.63
2018-07-16T16:34:04.669Z,4.60
2018-07-16T16:36:37.796Z,4.27
2018-07-16T16:39:12.062Z,4.37
2018-07-16T16:41:45.486Z,4.67
2018-07-16T16:44:18.258Z,3.60
2018-07-16T16:46:51.238Z,3.53
2018-07-16T16:49:24.244Z,4.40
2018-07-16T16:51:57.028Z,4.50
2018-07-16T16:54:29.839Z,3.97
2018-07-16T16:57:02.860Z,3.77
2018-07-16T16:59:35.155Z,3.57
2018-07-16T17:02:07.645Z,4.60
2018-07-16T17:04:39.889Z,3.67
2018-07-16T17:07:12.203Z,3.70
2018-07-16T17:09:44.715Z,4.30
2018-07-16T17:12:17.127Z,4.37
2018-07-16T17:14:49.706Z,4.50
2018-07-16T17:17:22.099Z,4.30
2018-07-16T17:19:54.748Z,4.10
2018-07-16T17:22:27.418Z,4.20
2018-07-16T17:25:00.097Z,4.47
2018-07-16T17:27:32.453Z,4.33
2018-07-16T17:30:04.826Z,4.50
2018-07-16T17:32:37.175Z,4.40
2018-07-16T17:35:09.987Z,5.03
2018-07-16T17:37:42.326Z,4.00
2018-07-16T17:40:14.694Z,4.27
2018-07-16T17:42:47.211Z,4.63
2018-07-16T17:45:19.797Z,4.20
2018-07-16T17:47:52.104Z,4.20
2018-07-16T17:50:24.621Z,4.97
2018-07-16T17:52:57.102Z,5.07
2018-07-16T17:55:28.124Z,4.13
2018-07-16T17:58:00.800Z,4.77
2018-07-16T18:00:33.388Z,4.73
2018-07-16T18:03:05.963Z,5.27
2018-07-16T18:05:38.853Z,5.20
2018-07-16T18:08:11.174Z,4.33
2018-07-16T18:10:43.919Z,4.13
2018-07-16T18:13:17.354Z,5.00
2018-07-16T18:15:49.679Z,4.57
2018-07-16T18:18:22.150Z,4.90
2018-07-16T18:20:54.717Z,4.57
2018-07-16T18:23:27.280Z,4.90
2018-07-16T18:26:00.047Z,4.60
2018-07-16T18:28:32.536Z,4.47
2018-07-16T18:31:05.642Z,5.27
2018-07-16T18:33:38.703Z,5.27
2018-07-16T18:36:11.318Z,5.03
2018-07-16T18:38:44.405Z,4.87
2018-07-16T18:41:17.049Z,4.87
2018-07-16T18:43:49.338Z,4.70
2018-07-16T18:46:20.564Z,5.30
2018-07-16T18:48:53.482Z,5.13
2018-07-16T18:51:26.206Z,5.20
2018-07-16T18:53:59.136Z,5.70
2018-07-16T18:56:31.370Z,5.33
2018-07-16T18:59:04.052Z,5.63
2018-07-16T19:01:36.701Z,4.70
2018-07-16T19:04:09.203Z,5.83
2018-07-16T19:06:42.919Z,5.60
2018-07-16T19:09:15.373Z,6.37
2018-07-16T19:11:47.905Z,4.93
2018-07-16T19:14:20.408Z,4.60
2018-07-16T19:16:52.758Z,5.33
2018-07-16T19:19:25.249Z,5.10
2018-07-16T19:21:57.699Z,5.37
2018-07-16T19:24:30.366Z,4.13
2018-07-16T19:27:03.042Z,5.10
2018-07-16T19:29:36.126Z,4.90
2018-07-16T19:32:09.105Z,4.77
2018-07-16T19:34:41.315Z,3.90
2018-07-16T19:37:14.068Z,4.70
2018-07-16T19:39:46.893Z,3.87
2018-07-16T19:42:19.953Z,5.03
2018-07-16T19:44:52.932Z,3.93
2018-07-16T19:47:25.590Z,5.07
2018-07-16T19:49:58.072Z,4.63
2018-07-16T19:52:30.615Z,4.17
2018-07-16T19:55:03.035Z,4.47
2018-07-16T19:57:35.740Z,4.83
2018-07-16T20:00:08.714Z,5.03
2018-07-16T20:02:41.704Z,4.70
2018-07-16T20:05:14.258Z,5.47
2018-07-16T20:07:46.501Z,4.43
2018-07-16T20:10:18.485Z,4.60
2018-07-16T20:12:50.999Z,4.33
2018-07-16T20:15:22.572Z,4.50
2018-07-16T20:17:55.264Z,4.80
2018-07-16T20:20:27.928Z,4.53
2018-07-16T20:23:00.229Z,4.60
2018-07-16T20:25:31.489Z,4.50
2018-07-16T20:28:03.670Z,3.73
2018-07-16T20:30:36.314Z,4.23
2018-07-16T20:33:08.927Z,4.70
2018-07-16T20:35:41.114Z,3.80
2018-07-16T20:38:14.871Z,3.70
2018-07-16T20:40:46.212Z,4.37
2018-07-16T20:43:18.859Z,3.83
2018-07-16T20:45:51.481Z,5.10
2018-07-16T20:48:23.458Z,4.13
2018-07-16T20:50:55.662Z,3.83
2018-07-16T20:53:27.968Z,3.60
2018-07-16T20:56:00.194Z,4.20
2018-07-16T20:58:32.546Z,3.97
2018-07-16T21:01:05.265Z,4.30
2018-07-16T21:03:38.317Z,4.10
2018-07-16T21:06:11.099Z,3.90
2018-07-16T21:08:43.109Z,4.83
2018-07-16T21:11:15.512Z,3.13
2018-07-16T21:13:48.368Z,3.77
2018-07-16T21:16:20.671Z,3.30
2018-07-16T21:18:52.802Z,3.17
2018-07-16T21:21:26.204Z,3.00
2018-07-16T21:23:57.699Z,3.13
2018-07-16T21:26:30.352Z,3.07
2018-07-16T21:29:03.293Z,2.80
2018-07-16T21:31:35.945Z,3.47
2018-07-16T21:34:08.655Z,3.50
2018-07-16T21:36:41.375Z,3.00
2018-07-16T21:39:13.970Z,3.30
2018-07-16T21:41:46.288Z,3.70
2018-07-16T21:44:19.112Z,3.83
2018-07-16T21:46:51.726Z,3.50
2018-07-16T21:49:24.016Z,3.50
2018-07-16T21:51:56.421Z,2.77
2018-07-16T21:54:28.538Z,3.13
2018-07-16T21:57:01.553Z,2.90
2018-07-16T21:59:34.250Z,3.70
2018-07-16T22:02:06.970Z,3.13
2018-07-16T22:04:39.380Z,3.63
2018-07-16T22:07:10.841Z,3.30
2018-07-16T22:09:43.188Z,3.60
2018-07-16T22:12:16.140Z,3.50
2018-07-16T22:14:48.685Z,3.10
2018-07-16T22:17:21.334Z,3.23
2018-07-16T22:19:54.166Z,3.23
2018-07-16T22:22:26.540Z,3.07
2018-07-16T22:24:58.925Z,3.27
2018-07-16T22:27:32.005Z,3.00
2018-07-16T22:30:05.113Z,3.10
2018-07-16T22:32:38.175Z,3.57
2018-07-16T22:35:10.876Z,3.23
2018-07-16T22:37:43.206Z,3.67
2018-07-16T22:40:15.591Z,3.60
2018-07-16T22:42:47.805Z,3.53
2018-07-16T22:45:20.285Z,3.50
2018-07-16T22:47:52.722Z,3.93
2018-07-16T22:50:25.146Z,3.80
2018-07-16T22:52:56.678Z,3.70
2018-07-16T22:55:29.232Z,3.47
2018-07-16T22:58:01.838Z,3.60
2018-07-16T23:00:35.437Z,3.57
2018-07-16T23:03:08.353Z,3.70
2018-07-16T23:05:40.528Z,3.50
2018-07-16T23:08:14.112Z,3.60
2018-07-16T23:10:46.444Z,4.10
2018-07-16T23:13:19.124Z,3.90
2018-07-16T23:15:51.814Z,3.33
2018-07-16T23:18:24.766Z,3.00
2018-07-16T23:20:56.976Z,3.60
2018-07-16T23:23:29.319Z,3.23
2018-07-16T23:26:01.685Z,3.60
2018-07-16T23:28:34.365Z,3.50
2018-07-16T23:31:06.960Z,3.20
2018-07-16T23:33:39.558Z,3.93
2018-07-16T23:36:10.957Z,3.40
2018-07-16T23:38:43.128Z,3.93
2018-07-16T23:41:16.063Z,3.57
2018-07-16T23:43:48.673Z,3.33
2018-07-16T23:46:21.212Z,3.80
2018-07-16T23:48:52.530Z,3.83
2018-07-16T23:51:25.309Z,3.53
2018-07-16T23:53:58.122Z,3.77
2018-07-16T23:56:30.636Z,3.27
2018-07-16T23:59:03.789Z,3.30
